イエローナイフ の空港の天気 - METARとTAF

イエローナイフ空港 ( CYZF / YZF ) - カナダ ノースウエスト準州イエローナイフ
飛行場実況気象(Metar)
観測時間01/21 10:00 MST (01/21 17:00 UTC)
風向・風速東 3m/s
視程10km以上
天気現象弱い雪
全天の8割程度の雲 雲底高度 1520m
気温-20℃
湿度77%
気圧1024hPa
METARCYZF 211700Z 10005KT 15SM -SN BKN050 M20/M23 A3014 RMK ST7 SLP240
過去の天気等 Google飛行場航空写真 Wunderground天気予報

過去48時間のMETAR

飛行場予報(TAF)
発表時間: 1/21 10:38 MST (1/21 17:38 UTC)
予報対象時間: 21日11時 MST ~ 22日11時 MST
風向・風速東 3m/s
視程10km以上
天気現象弱い雪
全天の8割程度の雲 雲底高度 1,520m
21日11時 MST ~ 21日20時 MST に一時的に
視程10km以上
天気現象運行に影響にある天気現象が終了
全天の4割程度の雲 雲底高度 1,520m
21日20時 MST から
風向・風速東 5m/s
視程6,440m
天気現象弱い雪 もや
全天の4割程度の雲 雲底高度 90m
全天を覆う雲 雲底高度 180m
21日20時 MST から 確率 40% で
視程1,610m
天気現象弱い雪 もや
全天を覆う雲 雲底高度 90m
22日1時 MST から
風向・風速東 6m/s
視程10km以上
天気現象弱い雪 もや
全天を覆う雲 雲底高度 240m
22日1時 MST から 確率 30% で
視程1,610m
天気現象弱い雪 もや
22日8時 MST から
風向・風速東 8m/s
視程10km以上
天気現象弱い雪
全天の8割程度の雲 雲底高度 370m
全天を覆う雲 雲底高度 5,490m
TAF CYZF 211738Z 2118/2218 09005KT P6SM -SN BKN050
TEMPO 2118/2203 P6SM NSW SCT050
FM220300 09010KT 4SM -SN BR SCT003 OVC006
PROB40 2203/2208 1SM -SN BR OVC003
FM220800 09012KT 6SM -SN BR OVC008
PROB30 2208/2215 1SM -SN BR
FM221500 09015KT P6SM -SN BKN012 OVC180 RMK NXT FCST BY 220000Z